aviador You're here:

KADF Decoded Metar

in
Report Time2017-10-21 14:56:00
UTC Time2017-10-21 15:38:14
Flight Rules ifr IFR
WindVRB at 05 kt
Visibility9999 m
Phenomena:N/A
Clouds:Overcast 006 Hf
Expected CloudBase > 800 ft AGL from Temp-Dew spread
Ceiling600 ft
Temp21°C
Dew Point19°C (88% RH)
QNH1018 hPa
Raw Report
KADF 211456Z AUTO VRB05KT 10SM OVC006 21/19 A3005 RMK AO2 SLP179
T02060189 53002=

Extra information for KADF:More info

Social comments